Time;durP1;ratioP1;P1;durP2;ratioP2;P2;SDS_P1;SDS_P2;PMS_P1;PMS_P2;Temp;Humidity;BMP_temperature;BMP_pressure;BME280_temperature;BME280_humidity;BME280_pressure;Samples;Min_cycle;Max_cycle;Signal;HPM_P1;HPM_P2
2023/05/05 00:01:07;;;;;;;2.05;0.85;;;;;;;18.45;52.41;101108.13;5033691;28;20091;-48
2023/05/05 00:03:36;;;;;;;2.63;1.10;;;;;;;18.21;51.82;101117.53;5049310;28;20112;-46
2023/05/05 00:06:04;;;;;;;1.15;0.88;;;;;;;18.24;51.97;101118.94;5053523;28;20017;-45
2023/05/05 00:08:30;;;;;;;1.45;0.90;;;;;;;18.08;51.73;101116.00;5038015;28;20021;-43
2023/05/05 00:10:57;;;;;;;2.67;1.10;;;;;;;18.20;52.08;101122.13;5033468;28;20504;-41
2023/05/05 00:13:23;;;;;;;1.80;0.73;;;;;;;18.21;51.58;101122.97;5034858;28;20117;-46
2023/05/05 00:15:52;;;;;;;2.25;0.93;;;;;;;18.26;52.13;101125.75;5033191;28;20048;-46
2023/05/05 00:18:19;;;;;;;1.75;1.10;;;;;;;18.29;50.82;101121.72;5047568;28;20444;-42
2023/05/05 00:20:46;;;;;;;1.92;0.73;;;;;;;18.49;51.84;101122.00;5036508;28;20469;-43
2023/05/05 00:23:13;;;;;;;1.33;0.90;;;;;;;18.28;51.19;101120.09;5025794;28;20435;-44
2023/05/05 00:25:40;;;;;;;1.85;1.10;;;;;;;18.28;51.92;101117.38;5029778;28;20029;-43
2023/05/05 00:28:06;;;;;;;1.67;0.80;;;;;;;18.31;51.84;101120.41;5032800;28;20033;-42
2023/05/05 00:30:33;;;;;;;2.05;1.10;;;;;;;18.42;52.55;101130.28;5018028;28;20346;-42
2023/05/05 00:33:00;;;;;;;2.70;0.90;;;;;;;18.39;52.13;101122.69;5013361;28;20033;-43
2023/05/05 00:35:26;;;;;;;1.67;0.80;;;;;;;18.35;51.05;101121.53;5012858;28;20053;-42
2023/05/05 00:37:55;;;;;;;4.00;2.45;;;;;;;18.30;50.84;101120.66;5013284;28;20096;-43
2023/05/05 00:40:22;;;;;;;3.95;1.50;;;;;;;18.38;51.51;101121.06;5021787;28;20055;-43
2023/05/05 00:42:49;;;;;;;1.80;0.70;;;;;;;18.39;51.16;101116.44;5033635;28;20064;-43
2023/05/05 00:45:16;;;;;;;1.88;0.77;;;;;;;18.08;53.22;101121.44;5033126;28;20097;-43
2023/05/05 00:47:48;;;;;;;3.30;1.00;;;;;;;18.08;51.98;101123.31;5032922;28;20075;-42
2023/05/05 00:50:24;;;;;;;3.88;1.27;;;;;;;17.86;53.43;101124.09;5033375;28;20034;-42
2023/05/05 00:52:53;;;;;;;3.63;0.90;;;;;;;17.61;52.28;101127.19;5033179;28;20389;-41
2023/05/05 00:55:20;;;;;;;3.25;1.20;;;;;;;17.51;53.47;101124.31;5032935;28;20021;-43
2023/05/05 00:57:48;;;;;;;2.50;1.00;;;;;;;17.43;53.87;101124.69;5032235;28;20049;-43
2023/05/05 01:00:15;;;;;;;2.83;1.00;;;;;;;17.28;55.25;101124.44;5032998;28;20034;-42
2023/05/05 01:02:41;;;;;;;2.00;0.80;;;;;;;17.32;55.09;101122.88;5032894;28;20038;-42
2023/05/05 01:05:12;;;;;;;2.42;1.20;;;;;;;17.47;55.44;101120.44;5031193;28;20037;-42
2023/05/05 01:07:57;;;;;;;4.45;1.25;;;;;;;17.26;55.58;101126.56;5017347;28;20418;-42
2023/05/05 01:10:26;;;;;;;1.58;0.80;;;;;;;17.22;55.70;101126.25;5030735;28;20049;-41
2023/05/05 01:13:15;;;;;;;6.18;1.05;;;;;;;17.20;55.72;101127.53;5032372;28;20109;-42
2023/05/05 01:16:00;;;;;;;2.97;1.20;;;;;;;17.12;56.69;101128.75;5032207;28;20025;-45
2023/05/05 01:18:58;;;;;;;2.97;1.10;;;;;;;16.79;56.93;101127.59;5030223;28;20029;-41
2023/05/05 01:21:28;;;;;;;3.85;1.30;;;;;;;16.81;57.07;101133.56;5031063;28;20040;-42
2023/05/05 01:24:19;;;;;;;4.72;1.35;;;;;;;16.76;57.31;101130.75;5017181;28;20034;-43
2023/05/05 01:27:24;;;;;;;3.30;1.15;;;;;;;16.57;57.70;101130.09;5019505;28;20053;-42
2023/05/05 01:30:01;;;;;;;5.70;1.20;;;;;;;16.58;58.34;101134.44;4973720;28;20170;-45
2023/05/05 01:32:31;;;;;;;2.50;0.90;;;;;;;16.38;58.68;101134.00;5024653;28;20478;-50
2023/05/05 01:35:13;;;;;;;4.85;1.27;;;;;;;16.39;59.06;101132.94;5030262;28;20029;-46
2023/05/05 01:38:05;;;;;;;2.63;0.98;;;;;;;16.56;58.14;101130.34;5015081;28;20390;-50
2023/05/05 01:40:38;;;;;;;2.08;1.00;;;;;;;16.52;58.21;101129.16;5012455;28;20018;-44
2023/05/05 01:43:07;;;;;;;3.47;1.08;;;;;;;16.40;58.48;101126.47;5023386;28;20032;-43
2023/05/05 01:45:37;;;;;;;3.38;1.20;;;;;;;16.50;58.78;101126.69;5034948;28;20030;-44
2023/05/05 01:48:05;;;;;;;3.63;0.98;;;;;;;16.66;58.21;101129.69;5031439;28;20032;-45
2023/05/05 01:50:33;;;;;;;4.43;1.30;;;;;;;16.66;58.29;101135.94;5031909;28;20041;-41
2023/05/05 01:53:00;;;;;;;2.63;1.02;;;;;;;16.46;58.90;101130.13;5032482;28;20037;-45
2023/05/05 01:55:28;;;;;;;4.07;1.02;;;;;;;16.54;58.95;101127.84;5038813;28;20501;-44
2023/05/05 01:57:57;;;;;;;2.33;0.95;;;;;;;16.59;58.98;101130.66;5033957;28;20045;-45
2023/05/05 02:00:25;;;;;;;3.42;1.17;;;;;;;16.63;58.29;101131.81;5051745;28;20033;-47
2023/05/05 02:02:58;;;;;;;2.70;1.05;;;;;;;16.57;58.74;101138.19;5040349;28;20068;-48
2023/05/05 02:05:27;;;;;;;2.83;1.02;;;;;;;16.52;59.16;101146.19;5026121;28;20466;-47
2023/05/05 02:07:57;;;;;;;1.90;1.13;;;;;;;16.39;59.00;101145.63;5031838;28;20024;-47
2023/05/05 02:10:24;;;;;;;1.65;0.85;;;;;;;16.34;59.16;101140.94;5049022;28;20021;-44
2023/05/05 02:12:52;;;;;;;2.55;1.10;;;;;;;16.15;60.05;101139.41;5051986;28;20167;-46
2023/05/05 02:15:21;;;;;;;4.82;1.00;;;;;;;16.15;59.74;101145.63;5051629;28;20458;-46
2023/05/05 02:17:51;;;;;;;2.50;0.90;;;;;;;16.08;59.98;101145.75;5051515;28;20052;-46
2023/05/05 02:20:18;;;;;;;4.60;1.58;;;;;;;16.11;59.61;101147.19;5051735;28;20392;-46
2023/05/05 02:22:45;;;;;;;5.18;0.95;;;;;;;16.13;59.49;101146.94;5051945;28;20041;-43
2023/05/05 02:25:11;;;;;;;5.25;1.27;;;;;;;16.16;59.62;101146.44;5051733;28;20029;-47
2023/05/05 02:27:42;;;;;;;4.45;1.02;;;;;;;16.16;59.58;101149.16;5051576;28;20493;-43
2023/05/05 02:30:12;;;;;;;3.00;1.02;;;;;;;16.30;58.99;101154.09;5051601;28;20045;-43
2023/05/05 02:32:42;;;;;;;4.90;1.25;;;;;;;16.45;58.41;101156.31;5051995;28;20033;-47
2023/05/05 02:35:20;;;;;;;2.85;1.00;;;;;;;16.64;57.96;101154.28;5051591;28;20159;-47
2023/05/05 02:38:01;;;;;;;3.05;1.40;;;;;;;16.47;57.97;101156.88;5033491;28;20025;-45
2023/05/05 02:40:30;;;;;;;3.70;1.30;;;;;;;16.51;57.37;101160.75;5031962;28;20022;-45
2023/05/05 02:43:00;;;;;;;2.33;1.15;;;;;;;16.39;57.93;101167.25;5018920;28;20099;-46
2023/05/05 02:45:27;;;;;;;4.00;1.35;;;;;;;16.37;57.96;101170.16;4994928;28;20037;-46
2023/05/05 02:47:53;;;;;;;3.90;1.10;;;;;;;16.26;58.11;101171.00;5028090;28;20025;-43
2023/05/05 02:50:20;;;;;;;4.18;1.25;;;;;;;16.12;58.47;101175.00;5030951;28;20021;-44
2023/05/05 02:52:46;;;;;;;3.42;1.38;;;;;;;16.13;59.00;101182.03;5031184;28;20026;-45
2023/05/05 02:55:13;;;;;;;2.72;1.02;;;;;;;16.17;57.99;101186.75;5030999;28;20032;-47
2023/05/05 02:57:59;;;;;;;3.65;1.30;;;;;;;16.06;58.67;101188.38;5030703;28;20490;-44
2023/05/05 03:00:35;;;;;;;3.28;1.08;;;;;;;16.02;59.28;101191.78;5033961;28;20033;-44
2023/05/05 03:03:25;;;;;;;4.32;1.15;;;;;;;15.77;60.55;101192.81;5034881;28;20025;-45
2023/05/05 03:06:01;;;;;;;2.85;1.30;;;;;;;15.85;60.24;101197.03;5016544;28;20596;-43
2023/05/05 03:08:34;;;;;;;4.70;1.48;;;;;;;15.62;60.64;101199.66;5038369;28;20520;-44
2023/05/05 03:11:25;;;;;;;5.22;1.65;;;;;;;15.67;60.42;101211.44;5038674;28;20025;-46
2023/05/05 03:14:03;;;;;;;3.38;1.20;;;;;;;15.37;61.65;101214.09;5044593;28;20087;-44
2023/05/05 03:16:31;;;;;;;3.95;1.30;;;;;;;15.41;61.30;101209.91;5037813;28;20033;-45
2023/05/05 03:18:58;;;;;;;2.80;1.40;;;;;;;15.27;61.83;101225.47;5035061;28;20064;-44
2023/05/05 03:21:25;;;;;;;2.67;1.20;;;;;;;15.30;61.60;101221.47;5034317;28;20042;-44
2023/05/05 03:23:52;;;;;;;6.45;1.70;;;;;;;15.20;62.27;101226.56;5034454;28;20026;-43
2023/05/05 03:26:18;;;;;;;2.58;1.27;;;;;;;15.24;61.95;101236.69;5034061;28;20030;-46
2023/05/05 03:28:44;;;;;;;2.35;1.20;;;;;;;15.29;61.39;101230.63;5034661;28;20025;-44
2023/05/05 03:31:11;;;;;;;8.65;1.60;;;;;;;15.10;61.72;101232.50;5051397;28;20040;-47
2023/05/05 03:33:38;;;;;;;2.75;1.50;;;;;;;15.21;61.86;101233.63;5054388;28;20473;-43
2023/05/05 03:36:04;;;;;;;3.17;1.42;;;;;;;15.00;62.46;101243.84;5051041;28;20025;-43
2023/05/05 03:38:30;;;;;;;3.42;1.40;;;;;;;15.21;61.51;101247.94;5022077;28;20056;-42
2023/05/05 03:41:01;;;;;;;1.98;1.20;;;;;;;14.98;59.04;101253.19;5033940;28;20484;-43
2023/05/05 03:43:27;;;;;;;3.60;1.10;;;;;;;14.52;60.21;101262.56;5034267;28;20493;-42
2023/05/05 03:45:54;;;;;;;3.70;1.05;;;;;;;14.61;59.56;101261.25;5033855;28;20018;-45
2023/05/05 03:48:20;;;;;;;2.90;1.05;;;;;;;14.68;59.77;101263.88;5034141;28;20026;-44
2023/05/05 03:50:48;;;;;;;2.15;0.80;;;;;;;14.21;59.91;101263.44;5033979;28;20114;-42
2023/05/05 03:53:14;;;;;;;4.32;1.15;;;;;;;14.04;60.74;101281.16;5033974;28;20385;-43
2023/05/05 03:55:40;;;;;;;1.33;0.90;;;;;;;13.89;61.36;101282.31;5033818;28;20112;-43
2023/05/05 03:58:06;;;;;;;1.42;0.80;;;;;;;13.80;61.95;101282.78;5016033;28;20049;-43
2023/05/05 04:00:33;;;;;;;2.17;1.13;;;;;;;13.78;61.84;101288.38;5033866;28;20025;-42
2023/05/05 04:02:59;;;;;;;1.90;1.10;;;;;;;13.80;61.53;101290.84;5033687;28;20080;-43
2023/05/05 04:05:25;;;;;;;4.32;1.25;;;;;;;13.73;61.68;101298.97;5049166;28;20033;-44
2023/05/05 04:07:51;;;;;;;1.75;1.00;;;;;;;13.49;62.19;101300.53;5053457;28;20153;-42
2023/05/05 04:10:18;;;;;;;1.90;1.20;;;;;;;13.51;63.23;101305.69;5052314;28;20033;-45
2023/05/05 04:12:45;;;;;;;1.95;1.20;;;;;;;13.43;62.80;101304.88;5053590;28;20076;-42
2023/05/05 04:15:11;;;;;;;1.65;0.80;;;;;;;13.48;62.44;101313.13;5042259;28;20030;-42
2023/05/05 04:17:37;;;;;;;2.42;1.08;;;;;;;13.30;63.28;101310.31;5033251;28;20201;-43
2023/05/05 04:20:04;;;;;;;2.63;1.00;;;;;;;13.26;63.35;101319.84;5034348;28;20374;-43
2023/05/05 04:22:30;;;;;;;1.80;0.80;;;;;;;13.23;63.23;101322.97;5033009;28;20544;-45
2023/05/05 04:24:56;;;;;;;1.10;0.70;;;;;;;13.17;63.38;101327.31;5033243;28;20474;-44
2023/05/05 04:27:24;;;;;;;2.67;1.17;;;;;;;13.25;63.70;101328.94;5032932;28;20018;-43
2023/05/05 04:29:51;;;;;;;2.90;1.10;;;;;;;13.18;64.01;101336.19;5016147;28;20029;-43
2023/05/05 04:32:17;;;;;;;2.25;1.10;;;;;;;13.35;63.04;101333.91;5033399;28;20033;-44
2023/05/05 04:34:43;;;;;;;2.35;1.20;;;;;;;13.19;63.90;101335.16;5032965;28;20021;-44
2023/05/05 04:37:10;;;;;;;1.75;1.20;;;;;;;13.28;63.79;101331.22;5027751;28;20388;-44
2023/05/05 04:39:36;;;;;;;2.10;1.13;;;;;;;13.32;63.51;101339.69;5013627;28;20478;-43
2023/05/05 04:42:02;;;;;;;3.00;0.88;;;;;;;13.24;63.48;101338.06;5018418;28;20021;-43
2023/05/05 04:44:29;;;;;;;1.63;1.00;;;;;;;13.28;64.06;101333.91;5033237;28;20120;-42
2023/05/05 04:46:55;;;;;;;3.50;1.00;;;;;;;13.35;63.82;101339.28;5032313;28;20036;-43
2023/05/05 04:49:21;;;;;;;2.80;1.00;;;;;;;13.43;63.37;101334.47;5032913;28;20021;-44
2023/05/05 04:51:48;;;;;;;1.90;1.00;;;;;;;13.50;63.27;101344.41;5042843;28;20032;-45
2023/05/05 04:54:14;;;;;;;2.10;1.08;;;;;;;13.34;64.40;101346.50;5032781;28;20044;-45
2023/05/05 04:56:40;;;;;;;1.92;1.00;;;;;;;13.13;65.22;101344.88;5031917;28;20037;-43
2023/05/05 04:59:06;;;;;;;2.08;1.40;;;;;;;13.21;64.59;101343.84;5032830;28;20535;-45
2023/05/05 05:01:33;;;;;;;1.52;1.00;;;;;;;13.02;65.38;101342.84;5032539;28;20030;-46
2023/05/05 05:03:59;;;;;;;5.30;1.45;;;;;;;13.08;65.49;101342.00;5032384;28;20482;-44
2023/05/05 05:06:26;;;;;;;4.78;1.38;;;;;;;13.00;66.48;101344.09;5032274;28;20080;-44
2023/05/05 05:08:52;;;;;;;2.40;1.20;;;;;;;12.99;66.24;101345.94;5032038;28;20029;-44
2023/05/05 05:11:18;;;;;;;3.47;1.42;;;;;;;13.00;66.10;101347.59;5032540;28;20141;-46
2023/05/05 05:13:45;;;;;;;3.08;1.30;;;;;;;13.04;65.93;101343.44;5032366;28;20466;-45
2023/05/05 05:16:11;;;;;;;3.38;1.27;;;;;;;12.98;66.15;101348.84;5032933;28;20053;-43
2023/05/05 05:18:37;;;;;;;3.75;1.60;;;;;;;12.90;67.14;101348.03;5032148;28;20025;-45
2023/05/05 05:21:03;;;;;;;3.63;1.13;;;;;;;12.91;67.17;101355.03;5031887;28;20095;-44
2023/05/05 05:23:30;;;;;;;2.65;1.10;;;;;;;12.92;66.98;101356.69;5031362;28;20159;-46
2023/05/05 05:25:56;;;;;;;2.47;1.13;;;;;;;12.82;68.00;101361.66;5032035;28;20021;-43
2023/05/05 05:28:22;;;;;;;3.55;1.35;;;;;;;12.91;67.86;101355.03;5032001;28;20056;-43
2023/05/05 05:30:49;;;;;;;2.03;1.15;;;;;;;12.91;67.39;101355.03;5032115;28;20111;-44
2023/05/05 05:33:15;;;;;;;3.88;1.20;;;;;;;13.00;67.35;101346.78;5031781;28;20030;-44
2023/05/05 05:35:41;;;;;;;3.92;1.30;;;;;;;13.04;67.00;101348.81;5031880;28;20078;-44
2023/05/05 05:38:07;;;;;;;4.00;1.05;;;;;;;13.10;66.73;101355.22;5021585;28;20017;-45
2023/05/05 05:40:34;;;;;;;4.13;1.30;;;;;;;13.17;66.36;101342.59;5031790;28;20048;-43
2023/05/05 05:43:01;;;;;;;3.92;1.17;;;;;;;13.12;66.95;101350.47;5031705;28;20389;-43
2023/05/05 05:45:27;;;;;;;2.78;1.17;;;;;;;13.12;67.19;101356.66;5031346;28;20026;-42
2023/05/05 05:47:54;;;;;;;1.98;1.23;;;;;;;13.18;66.30;101353.13;5031827;28;20470;-45
2023/05/05 05:50:20;;;;;;;3.92;1.40;;;;;;;13.33;65.41;101347.56;5031609;28;20025;-44
2023/05/05 05:52:47;;;;;;;3.58;2.00;;;;;;;13.48;64.93;101349.97;5031627;28;20056;-43
2023/05/05 05:55:13;;;;;;;3.45;1.50;;;;;;;13.54;65.21;101354.50;5031865;28;20482;-44
2023/05/05 05:57:39;;;;;;;2.80;1.10;;;;;;;13.40;65.63;101363.66;5031234;28;20386;-42
2023/05/05 06:00:06;;;;;;;1.65;1.00;;;;;;;13.55;65.32;101347.25;5028029;28;20037;-44
2023/05/05 06:02:32;;;;;;;3.85;1.40;;;;;;;13.60;65.24;101342.06;5031057;28;20096;-43
2023/05/05 06:04:58;;;;;;;2.20;1.20;;;;;;;13.58;65.06;101347.66;5031834;28;20097;-44
2023/05/05 06:07:25;;;;;;;2.95;1.48;;;;;;;13.51;64.98;101346.88;5031266;28;20100;-43
2023/05/05 06:09:51;;;;;;;2.30;1.02;;;;;;;13.54;64.26;101357.19;5032184;28;20112;-43
2023/05/05 06:12:17;;;;;;;2.08;1.10;;;;;;;13.61;64.30;101351.81;5031802;28;20026;-45
2023/05/05 06:14:43;;;;;;;2.53;1.17;;;;;;;13.55;64.59;101348.09;5031622;28;20030;-45
2023/05/05 06:17:10;;;;;;;3.15;1.27;;;;;;;13.40;65.01;101351.03;5031336;28;20034;-43
2023/05/05 06:19:38;;;;;;;3.55;1.20;;;;;;;13.47;64.86;101351.00;5032077;28;20543;-43
2023/05/05 06:22:05;;;;;;;1.48;1.05;;;;;;;13.40;64.63;101350.22;5031285;28;20033;-42
2023/05/05 06:24:31;;;;;;;2.08;1.08;;;;;;;13.35;65.10;101355.41;5031362;28;20417;-44
2023/05/05 06:26:58;;;;;;;2.08;0.90;;;;;;;13.25;65.47;101342.41;5031110;28;20429;-44
2023/05/05 06:29:25;;;;;;;4.20;1.38;;;;;;;13.20;65.56;101344.84;5031428;28;20068;-43
2023/05/05 06:31:51;;;;;;;4.60;1.25;;;;;;;13.00;66.47;101336.84;5031535;28;20109;-42
2023/05/05 06:34:17;;;;;;;1.55;1.30;;;;;;;13.11;66.38;101343.44;5033888;28;20492;-43
2023/05/05 06:36:43;;;;;;;2.28;1.05;;;;;;;13.11;66.07;101338.91;5034710;28;20025;-47
2023/05/05 06:39:10;;;;;;;2.53;1.20;;;;;;;13.23;65.39;101331.03;5035238;28;20064;-43
2023/05/05 06:41:36;;;;;;;1.98;0.93;;;;;;;13.01;66.14;101340.38;5017626;28;20022;-43
2023/05/05 06:44:03;;;;;;;1.83;1.30;;;;;;;13.02;65.76;101333.94;5035168;28;20034;-46
2023/05/05 06:46:29;;;;;;;2.58;1.30;;;;;;;12.95;65.93;101328.59;5034897;28;20025;-43
2023/05/05 06:48:55;;;;;;;2.58;1.27;;;;;;;12.99;66.12;101328.97;5035022;28;20029;-44
2023/05/05 06:51:21;;;;;;;3.80;1.10;;;;;;;12.90;66.27;101331.09;5034942;28;20037;-45
2023/05/05 06:53:48;;;;;;;3.63;1.10;;;;;;;12.84;66.48;101338.13;5034791;28;20029;-44
2023/05/05 06:56:14;;;;;;;2.65;1.05;;;;;;;12.92;66.17;101340.56;5034590;28;20036;-44
2023/05/05 06:58:41;;;;;;;2.53;1.05;;;;;;;12.90;66.30;101339.16;5034930;28;20029;-43
2023/05/05 07:01:07;;;;;;;2.50;1.08;;;;;;;12.86;66.48;101345.97;5034884;28;20026;-43
2023/05/05 07:03:33;;;;;;;2.58;1.20;;;;;;;12.84;66.66;101348.03;5034616;28;20025;-44
2023/05/05 07:05:59;;;;;;;2.50;1.27;;;;;;;12.84;66.68;101354.25;5034669;28;20393;-43
2023/05/05 07:08:26;;;;;;;2.55;1.40;;;;;;;12.85;66.74;101347.00;5038065;28;20538;-45
2023/05/05 07:10:52;;;;;;;4.68;2.20;;;;;;;12.67;67.35;101348.47;5054705;28;20025;-43
2023/05/05 07:13:18;;;;;;;3.65;2.00;;;;;;;12.59;67.94;101350.53;5054558;28;20029;-44
2023/05/05 07:15:47;;;;;;;5.53;1.95;;;;;;;12.72;67.70;101353.22;5054260;28;20098;-45
2023/05/05 07:18:15;;;;;;;3.05;1.75;;;;;;;12.69;67.59;101348.25;5054660;28;20082;-43
2023/05/05 07:20:42;;;;;;;4.60;1.27;;;;;;;12.67;68.11;101358.38;5054805;28;20049;-43
2023/05/05 07:23:10;;;;;;;3.90;1.60;;;;;;;12.69;68.02;101361.69;5055103;28;20029;-44
2023/05/05 07:25:36;;;;;;;2.85;1.40;;;;;;;12.62;68.44;101358.19;5054610;28;20466;-43
2023/05/05 07:28:03;;;;;;;4.45;2.08;;;;;;;12.69;68.24;101353.63;5054787;28;20033;-43
2023/05/05 07:30:29;;;;;;;3.05;1.90;;;;;;;12.66;68.22;101362.09;5054518;28;20104;-43
2023/05/05 07:32:56;;;;;;;4.78;1.50;;;;;;;12.60;68.59;101365.59;5036565;28;20044;-45
2023/05/05 07:35:22;;;;;;;3.83;1.73;;;;;;;12.68;68.49;101370.78;5048819;28;20132;-42
2023/05/05 07:37:49;;;;;;;2.80;1.35;;;;;;;12.59;68.96;101372.00;5022339;28;20161;-44
2023/05/05 07:40:15;;;;;;;3.05;1.95;;;;;;;12.54;69.40;101366.41;5014581;28;20041;-43
2023/05/05 07:42:42;;;;;;;2.10;1.60;;;;;;;12.46;69.96;101372.84;5014446;28;20061;-45
2023/05/05 07:45:08;;;;;;;5.22;1.50;;;;;;;12.52;69.36;101365.81;5013692;28;20033;-45
2023/05/05 07:47:34;;;;;;;2.35;1.48;;;;;;;12.57;69.35;101374.06;5031908;28;20025;-44
2023/05/05 07:50:01;;;;;;;2.95;1.33;;;;;;;12.65;69.02;101374.69;5053708;28;20037;-43
2023/05/05 07:52:27;;;;;;;2.05;1.23;;;;;;;12.63;68.96;101375.94;5053957;28;20031;-43
2023/05/05 07:54:53;;;;;;;3.28;1.30;;;;;;;12.80;68.66;101381.72;5053706;28;20104;-44
2023/05/05 07:57:19;;;;;;;1.88;1.40;;;;;;;12.75;69.05;101376.97;5053235;28;20106;-43
2023/05/05 07:59:46;;;;;;;1.85;1.30;;;;;;;12.76;68.82;101380.47;5053488;28;20495;-44
2023/05/05 08:02:13;;;;;;;2.83;1.38;;;;;;;12.72;69.25;101377.41;5053668;28;20469;-42
2023/05/05 08:04:40;;;;;;;1.77;1.33;;;;;;;12.89;68.63;101385.84;5051684;28;20032;-42
2023/05/05 08:07:07;;;;;;;2.67;1.48;;;;;;;12.75;69.41;101378.81;5053509;28;20025;-44
2023/05/05 08:09:36;;;;;;;3.15;1.83;;;;;;;12.66;70.02;101379.06;5053376;28;20037;-42
2023/05/05 08:12:03;;;;;;;3.80;1.60;;;;;;;12.64;69.81;101378.41;5053831;28;20038;-43
2023/05/05 08:14:30;;;;;;;3.42;1.77;;;;;;;12.66;69.70;101383.59;5053634;28;20063;-44
2023/05/05 08:16:56;;;;;;;4.70;1.38;;;;;;;12.61;70.06;101386.91;5035133;28;20036;-43
2023/05/05 08:19:23;;;;;;;2.17;1.38;;;;;;;12.57;69.55;101387.50;5033167;28;20025;-43
2023/05/05 08:21:50;;;;;;;2.30;1.30;;;;;;;12.79;67.48;101388.13;5033270;28;20029;-44
2023/05/05 08:24:16;;;;;;;2.05;0.98;;;;;;;12.46;68.01;101380.88;5033186;28;20052;-42
2023/05/05 08:26:42;;;;;;;1.25;1.13;;;;;;;12.19;69.04;101380.00;5033213;28;20022;-45
2023/05/05 08:29:08;;;;;;;1.55;1.00;;;;;;;12.27;68.91;101376.31;5033267;28;20631;-43
2023/05/05 08:31:36;;;;;;;4.25;1.27;;;;;;;12.32;68.72;101373.84;5032979;28;20104;-44
2023/05/05 08:34:04;;;;;;;3.65;1.10;;;;;;;12.30;69.13;101379.41;5032811;28;20238;-42
2023/05/05 08:36:31;;;;;;;2.28;1.20;;;;;;;12.14;69.21;101380.63;5027961;28;20025;-44
2023/05/05 08:38:58;;;;;;;2.65;1.23;;;;;;;12.31;68.67;101380.25;5032526;28;20030;-43
2023/05/05 08:41:25;;;;;;;2.45;1.20;;;;;;;12.17;69.48;101379.41;5032901;28;20032;-44
2023/05/05 08:43:51;;;;;;;2.33;1.10;;;;;;;12.20;69.57;101378.16;5032971;28;20033;-43
2023/05/05 08:46:18;;;;;;;2.17;1.23;;;;;;;12.21;69.73;101383.31;5032687;28;20036;-43
2023/05/05 08:48:44;;;;;;;2.22;1.05;;;;;;;12.17;69.87;101382.09;5032847;28;20033;-46
2023/05/05 08:51:18;;;;;;;2.10;1.45;;;;;;;12.20;70.06;101378.97;5032872;28;20536;-43
2023/05/05 08:53:53;;;;;;;2.35;1.13;;;;;;;12.26;70.10;101378.16;5032452;28;20026;-43
2023/05/05 08:56:26;;;;;;;3.45;1.40;;;;;;;12.15;70.77;101386.81;5031531;28;20031;-43
2023/05/05 08:58:53;;;;;;;3.90;1.30;;;;;;;12.19;70.54;101382.69;5032751;28;20452;-43
2023/05/05 09:01:20;;;;;;;3.33;1.20;;;;;;;12.25;70.70;101381.88;5028641;28;20049;-43
2023/05/05 09:03:46;;;;;;;2.17;1.20;;;;;;;12.29;70.72;101379.63;5032478;28;20032;-42
2023/05/05 09:06:12;;;;;;;1.45;1.20;;;;;;;12.47;70.40;101381.72;5032274;28;20029;-43
2023/05/05 09:08:41;;;;;;;1.67;1.30;;;;;;;12.47;70.41;101384.41;5016517;28;20030;-43
2023/05/05 09:11:07;;;;;;;2.95;1.30;;;;;;;12.64;69.63;101383.78;5012792;28;20034;-43
2023/05/05 09:13:33;;;;;;;3.20;1.67;;;;;;;12.55;69.65;101389.59;5012644;28;20387;-46
2023/05/05 09:15:59;;;;;;;3.13;1.52;;;;;;;12.54;69.94;101385.22;5012150;28;20026;-44
2023/05/05 09:18:26;;;;;;;3.05;1.60;;;;;;;12.57;69.65;101387.50;5012689;28;20033;-42
2023/05/05 09:20:52;;;;;;;2.58;1.40;;;;;;;12.35;70.38;101386.88;5028871;28;20032;-44
2023/05/05 09:23:19;;;;;;;2.55;1.23;;;;;;;12.42;69.86;101387.69;5032265;28;20031;-44
2023/05/05 09:26:09;;;;;;;3.17;1.30;;;;;;;12.53;69.43;101391.63;5031550;28;20037;-44
2023/05/05 09:28:36;;;;;;;3.13;1.45;;;;;;;12.26;69.83;101390.75;5032227;28;20385;-43
2023/05/05 09:31:14;;;;;;;2.80;1.40;;;;;;;12.29;70.28;101393.03;5032022;28;20029;-43
2023/05/05 09:33:41;;;;;;;1.88;1.35;;;;;;;12.40;69.61;101401.31;5031935;28;20017;-45
2023/05/05 09:36:07;;;;;;;3.15;1.23;;;;;;;12.64;69.15;101407.13;5041613;28;20037;-42
2023/05/05 09:38:35;;;;;;;2.75;1.30;;;;;;;12.47;69.00;101395.97;5012245;28;20084;-44
2023/05/05 09:41:01;;;;;;;2.75;1.30;;;;;;;12.46;67.91;101399.69;5011996;28;20030;-43
2023/05/05 09:43:27;;;;;;;3.13;0.95;;;;;;;12.27;68.71;101405.81;5012198;28;20112;-44
2023/05/05 09:46:06;;;;;;;3.28;1.27;;;;;;;12.15;69.33;101409.09;5011763;28;20545;-43
2023/05/05 09:48:32;;;;;;;3.67;1.52;;;;;;;12.17;69.41;101411.59;5012653;28;20034;-44
2023/05/05 09:50:59;;;;;;;2.00;1.08;;;;;;;11.99;70.05;101406.78;5021326;28;20436;-42
2023/05/05 09:53:25;;;;;;;2.88;1.30;;;;;;;12.19;69.35;101412.22;5031372;28;20515;-42
2023/05/05 09:55:56;;;;;;;2.72;1.20;;;;;;;12.12;69.40;101409.53;5031947;28;20394;-42
2023/05/05 09:58:27;;;;;;;2.40;1.30;;;;;;;11.99;70.01;101400.59;5031658;28;20053;-42
2023/05/05 10:00:55;;;;;;;3.78;1.65;;;;;;;11.93;70.40;101404.09;5031651;28;20025;-42
2023/05/05 10:03:22;;;;;;;3.35;1.23;;;;;;;11.86;70.37;101399.53;5031649;28;20026;-42
2023/05/05 10:05:53;;;;;;;3.45;1.30;;;;;;;11.85;70.60;101397.06;5031293;28;20047;-42
2023/05/05 10:08:23;;;;;;;1.92;1.42;;;;;;;11.96;70.28;101392.97;5031471;28;20029;-42
2023/05/05 10:11:03;;;;;;;2.75;1.30;;;;;;;12.01;70.30;101395.88;5031670;28;20032;-42
2023/05/05 10:13:29;;;;;;;3.22;1.50;;;;;;;11.89;70.91;101391.09;5031704;28;20087;-43
2023/05/05 10:15:56;;;;;;;2.83;1.23;;;;;;;11.88;71.18;101385.91;5031564;28;20029;-43
2023/05/05 10:18:24;;;;;;;4.93;1.50;;;;;;;12.09;69.90;101393.00;5031231;28;20441;-47
2023/05/05 10:20:57;;;;;;;2.05;1.30;;;;;;;12.16;69.81;101388.50;5031848;28;20049;-42
2023/05/05 10:23:33;;;;;;;1.70;1.20;;;;;;;12.21;69.83;101391.38;5031615;28;20091;-44
2023/05/05 10:26:06;;;;;;;2.15;1.17;;;;;;;12.14;70.25;101402.09;5031186;28;20022;-42
2023/05/05 10:28:53;;;;;;;2.72;1.33;;;;;;;12.24;69.67;101395.50;5031525;28;20044;-40
2023/05/05 10:31:49;;;;;;;2.28;1.00;;;;;;;12.26;69.29;101407.69;5031413;28;20033;-41
2023/05/05 10:34:36;;;;;;;2.47;1.20;;;;;;;12.28;69.71;101408.31;5027420;28;20557;-41
2023/05/05 10:37:05;;;;;;;2.95;1.17;;;;;;;12.34;68.79;101406.69;5021358;28;20026;-41
2023/05/05 10:39:35;;;;;;;2.58;1.10;;;;;;;12.29;69.10;101411.84;4993989;28;20037;-41
2023/05/05 10:42:01;;;;;;;2.10;1.20;;;;;;;12.32;69.07;101404.19;5011545;28;20041;-45
2023/05/05 10:44:33;;;;;;;2.08;1.13;;;;;;;12.43;69.14;101403.59;5015576;28;20029;-40
2023/05/05 10:47:01;;;;;;;2.10;0.90;;;;;;;12.42;69.53;101403.78;5030868;28;20026;-41
2023/05/05 10:49:39;;;;;;;2.65;1.25;;;;;;;12.41;69.26;101410.19;5031094;28;20053;-42
2023/05/05 10:52:22;;;;;;;3.40;1.38;;;;;;;12.54;69.51;101404.00;5031323;28;20042;-40
2023/05/05 10:55:00;;;;;;;2.55;1.67;;;;;;;12.43;69.78;101408.94;5031298;28;20029;-42
2023/05/05 10:57:28;;;;;;;3.10;1.50;;;;;;;12.60;69.21;101408.56;5030604;28;20060;-49
2023/05/05 10:59:54;;;;;;;1.88;1.17;;;;;;;12.61;69.22;101408.38;5030702;28;20026;-40
2023/05/05 11:02:28;;;;;;;2.85;1.13;;;;;;;12.57;69.49;101403.63;5031305;28;20377;-42
2023/05/05 11:05:13;;;;;;;3.67;1.40;;;;;;;12.69;69.35;101404.66;5031072;28;20032;-42
2023/05/05 11:07:40;;;;;;;2.95;1.52;;;;;;;12.84;68.73;101399.91;5031401;28;20378;-42
2023/05/05 11:10:09;;;;;;;4.30;1.67;;;;;;;12.88;68.56;101403.00;5031061;28;20028;-41
2023/05/05 11:12:54;;;;;;;3.13;1.30;;;;;;;12.81;68.84;101403.00;5031044;28;20104;-42
2023/05/05 11:15:28;;;;;;;2.57;1.63;;;;;;;12.77;68.99;101406.28;5030519;28;20033;-42
2023/05/05 11:18:00;;;;;;;2.08;1.20;;;;;;;12.61;69.85;101400.31;5030995;28;20258;-40
2023/05/05 11:20:44;;;;;;;2.80;1.52;;;;;;;12.76;69.54;101397.41;5044853;28;20068;-41
2023/05/05 11:23:10;;;;;;;4.10;1.63;;;;;;;12.83;69.56;101395.56;5054033;28;20489;-40
2023/05/05 11:25:37;;;;;;;3.13;1.38;;;;;;;12.78;69.32;101397.22;5054538;28;20064;-41
2023/05/05 11:28:16;;;;;;;1.83;1.00;;;;;;;12.74;69.45;101395.97;5054108;28;20184;-40
2023/05/05 11:30:58;;;;;;;3.60;1.92;;;;;;;12.65;70.02;101390.78;5053981;28;20036;-40
2023/05/05 11:33:39;;;;;;;3.75;1.80;;;;;;;12.76;69.77;101397.41;5054034;28;20029;-41